Main page
METAR-TAF:

METAR-TAF

Airports :

Gällivare Lapland Airport

Gällivare, Sweden

latitude: 67-09N, longitude: 020-39E, elevation: 359 m

Current weather observation

The report was made 19 minutes ago, at 18:20 UTC
Wind 4 kt from the South/Southeast
Temperature 22°C
Humidity 57%
Pressure 1013 hPa
Visibility 10 km or more
no clouds below 1500 m and no cumulonimbus

METAR: ESNG 231820Z 15004KT CAVOK 22/13 Q1013

Time: 20:39 (18:39 UTC)

Forecast

The report was made 4 hours and 9 minutes ago, at 14:30 UTC
Forecast valid from 23 at 15 UTC to 23 at 19 UTC
Wind 10 kt from the South/Southeast
Visibility 10 km or more
no clouds below 1500 m and no cumulonimbus

TAF: ESNG 231430Z 2315/2319 15010KT CAVOK

Weather observations and forecasts of more than 4000 airports (METAR and TAF reports).

The available stations are represented by yellow and red dots on the map.

Hover mouse over dot to see the name of the station.

Then click to see weather observations and forecasts.

To change the map : click on the green buttons with a black cross to zoom in, on the green button with a dash to zoom out, or on the green arrows for adjacent maps.


METAR-TAF: